createdAt,value
2018-10-17T00:00:19.195Z,9.4
2018-10-17T00:02:18.963Z,8.8
2018-10-17T00:04:18.742Z,8.4
2018-10-17T00:06:19.019Z,9.2
2018-10-17T00:08:18.786Z,9.7
2018-10-17T00:10:19.084Z,9.4
2018-10-17T00:12:18.863Z,9.5
2018-10-17T00:14:18.634Z,9.4
2018-10-17T00:16:19.028Z,10.2
2018-10-17T00:18:18.869Z,9.9
2018-10-17T00:20:18.713Z,9.3
2018-10-17T00:22:19.465Z,9.2
2018-10-17T00:24:19.239Z,8.9
2018-10-17T00:26:19.080Z,8.6
2018-10-17T00:28:18.872Z,9.6
2018-10-17T00:30:18.684Z,8.7
2018-10-17T00:32:19.457Z,8
2018-10-17T00:34:19.218Z,9.1
2018-10-17T00:36:18.921Z,7.9
2018-10-17T00:38:18.705Z,9
2018-10-17T00:40:19.035Z,8.7
2018-10-17T00:42:18.858Z,8.2
2018-10-17T00:44:18.632Z,10.1
2018-10-17T00:46:18.738Z,9
2018-10-17T00:48:19.506Z,9.6
2018-10-17T00:50:19.305Z,9.4
2018-10-17T00:52:19.093Z,9.1
2018-10-17T00:54:18.870Z,8.6
2018-10-17T00:56:19.124Z,9
2018-10-17T00:58:18.888Z,9.6
2018-10-17T01:00:18.687Z,9
2018-10-17T01:02:19.490Z,9.7
2018-10-17T01:04:19.280Z,9.4
2018-10-17T01:06:18.534Z,8.9
2018-10-17T01:08:19.309Z,8.5
2018-10-17T01:10:18.710Z,9.2
2018-10-17T01:12:19.112Z,8.6
2018-10-17T01:14:18.897Z,9.7
2018-10-17T01:16:19.469Z,8.2
2018-10-17T01:18:19.357Z,9.7
2018-10-17T01:20:19.197Z,9.1
2018-10-17T01:22:18.968Z,9.5
2018-10-17T01:24:18.724Z,8.3
2018-10-17T01:26:19.052Z,8.6
2018-10-17T01:28:18.828Z,9.4
2018-10-17T01:30:18.629Z,9.3
2018-10-17T01:32:19.387Z,10.1
2018-10-17T01:34:19.172Z,8.5
2018-10-17T01:36:18.529Z,9.7
2018-10-17T01:38:19.318Z,8.9
2018-10-17T01:40:18.581Z,9.3
2018-10-17T01:42:19.195Z,9.7
2018-10-17T01:44:18.954Z,8.8
2018-10-17T01:46:18.996Z,9.1
2018-10-17T01:48:18.755Z,8.8
2018-10-17T01:50:18.531Z,8
2018-10-17T01:52:19.207Z,8.5
2018-10-17T01:54:18.978Z,8.3
2018-10-17T01:56:18.952Z,8.4
2018-10-17T01:58:18.708Z,8.2
2018-10-17T02:00:19.498Z,8.3
2018-10-17T02:02:19.298Z,8
2018-10-17T02:04:19.122Z,8.3
2018-10-17T02:06:18.873Z,8.2
2018-10-17T02:08:18.611Z,7.8
2018-10-17T02:10:18.866Z,7.4
2018-10-17T02:12:18.652Z,8.1
2018-10-17T02:14:19.438Z,6.6
2018-10-17T02:16:18.520Z,7.7
2018-10-17T02:18:19.370Z,8.4
2018-10-17T02:20:19.149Z,8.1
2018-10-17T02:22:18.918Z,7.1
2018-10-17T02:24:18.712Z,8.2
2018-10-17T02:26:19.248Z,7
2018-10-17T02:28:19.029Z,7.2
2018-10-17T02:30:18.803Z,6.4
2018-10-17T02:32:18.599Z,7
2018-10-17T02:34:19.376Z,7.6
2018-10-17T02:36:19.260Z,6.6
2018-10-17T02:38:19.028Z,6
2018-10-17T02:40:19.274Z,6.8
2018-10-17T02:42:19.328Z,7.7
2018-10-17T02:44:19.140Z,6.2
2018-10-17T02:46:18.914Z,7.6
2018-10-17T02:48:18.701Z,6.8
2018-10-17T02:50:19.485Z,6.3
2018-10-17T02:52:19.268Z,6.9
2018-10-17T02:54:19.042Z,8.7
2018-10-17T02:56:18.790Z,7.4
2018-10-17T02:58:18.575Z,7.9
2018-10-17T03:00:19.462Z,9.2
2018-10-17T03:02:18.995Z,6.7
2018-10-17T03:04:18.771Z,6.3
2018-10-17T03:06:18.727Z,6.3
2018-10-17T03:08:19.505Z,6
2018-10-17T03:10:18.753Z,7.1
2018-10-17T03:12:18.521Z,6.7
2018-10-17T03:14:19.284Z,7
2018-10-17T03:16:18.542Z,6.5
2018-10-17T03:18:19.417Z,7.7
2018-10-17T03:20:19.216Z,7.4
2018-10-17T03:22:18.999Z,7
2018-10-17T03:24:18.763Z,7.1
2018-10-17T03:26:19.242Z,7
2018-10-17T03:28:19.050Z,7.1
2018-10-17T03:30:18.814Z,7.2
2018-10-17T03:32:18.586Z,6.5
2018-10-17T03:34:19.370Z,7.2
2018-10-17T03:36:18.661Z,6.3
2018-10-17T03:38:19.460Z,6.5
2018-10-17T03:40:18.751Z,7.4
2018-10-17T03:42:18.511Z,8
2018-10-17T03:44:19.302Z,6.2
2018-10-17T03:46:19.439Z,7.3
2018-10-17T03:48:19.218Z,8.8
2018-10-17T03:50:19.093Z,6.9
2018-10-17T03:52:18.850Z,6.7
2018-10-17T03:54:18.606Z,6.9
2018-10-17T03:56:19.074Z,6.3
2018-10-17T03:58:18.851Z,6.4
2018-10-17T04:00:18.631Z,6.1
2018-10-17T04:02:19.413Z,7.6
2018-10-17T04:04:19.211Z,6.4
2018-10-17T04:06:18.622Z,6
2018-10-17T04:08:19.410Z,6.8
2018-10-17T04:10:18.716Z,6.5
2018-10-17T04:12:19.487Z,6.8
2018-10-17T04:14:19.252Z,5.9
2018-10-17T04:16:19.444Z,6.4
2018-10-17T04:18:19.293Z,6.1
2018-10-17T04:20:19.109Z,7
2018-10-17T04:22:18.911Z,7.2
2018-10-17T04:24:18.759Z,7.1
2018-10-17T04:26:19.137Z,6.3
2018-10-17T04:28:18.907Z,6.7
2018-10-17T04:30:18.700Z,7.2
2018-10-17T04:32:19.464Z,6
2018-10-17T04:34:19.241Z,6.5
2018-10-17T04:36:18.805Z,6.7
2018-10-17T04:38:18.710Z,6.7
2018-10-17T04:40:18.956Z,5.5
2018-10-17T04:42:18.724Z,6.1
2018-10-17T04:44:19.496Z,6.6
2018-10-17T04:46:18.531Z,6.6
2018-10-17T04:48:19.326Z,7.2
2018-10-17T04:50:19.117Z,6.9
2018-10-17T04:52:18.898Z,7.6
2018-10-17T04:54:18.660Z,7
2018-10-17T04:56:19.437Z,6.3
2018-10-17T04:58:19.207Z,8.2
2018-10-17T05:00:18.969Z,6
2018-10-17T05:02:18.715Z,6.7
2018-10-17T05:04:19.504Z,6.2
2018-10-17T05:06:18.995Z,6.7
2018-10-17T05:08:18.809Z,6.5
2018-10-17T05:10:19.026Z,6.8
2018-10-17T05:12:18.793Z,6.5
2018-10-17T05:14:18.555Z,7.1
2018-10-17T05:16:19.275Z,5.8
2018-10-17T05:18:19.201Z,5.9
2018-10-17T05:20:19.016Z,6.4
2018-10-17T05:22:18.795Z,6.1
2018-10-17T05:24:18.576Z,6.4
2018-10-17T05:26:18.887Z,6.3
2018-10-17T05:28:18.684Z,5.9
2018-10-17T05:30:19.469Z,8.1
2018-10-17T05:32:19.227Z,6.5
2018-10-17T05:34:18.998Z,6.1
2018-10-17T05:36:19.400Z,7.3
2018-10-17T05:38:19.202Z,6.2
2018-10-17T05:40:19.581Z,6
2018-10-17T05:42:19.342Z,6.8
2018-10-17T05:44:19.153Z,6.5
2018-10-17T05:46:19.405Z,7.5
2018-10-17T05:48:19.177Z,7.4
2018-10-17T05:50:18.976Z,7.2
2018-10-17T05:52:18.751Z,7.3
2018-10-17T05:54:18.528Z,7
2018-10-17T05:56:18.872Z,7.2
2018-10-17T05:58:18.640Z,8.8
2018-10-17T06:00:19.449Z,5.3
2018-10-17T06:02:19.216Z,6.7
2018-10-17T06:04:19.219Z,6.9
2018-10-17T06:06:19.156Z,8.2
2018-10-17T06:08:18.960Z,6.7
2018-10-17T06:10:19.313Z,7.1
2018-10-17T06:12:19.175Z,6.5
2018-10-17T06:14:18.946Z,7.5
2018-10-17T06:16:18.665Z,6.9
2018-10-17T06:18:18.529Z,7
2018-10-17T06:20:19.294Z,7.3
2018-10-17T06:22:19.037Z,7.8
2018-10-17T06:24:18.824Z,7.7
2018-10-17T06:26:19.225Z,7.9
2018-10-17T06:28:19.089Z,7.1
2018-10-17T06:30:19.162Z,7
2018-10-17T06:32:18.924Z,8.6
2018-10-17T06:34:18.772Z,7.4
2018-10-17T06:36:19.149Z,7.9
2018-10-17T06:38:18.952Z,6.7
2018-10-17T06:40:19.339Z,7.4
2018-10-17T06:42:19.120Z,7.9
2018-10-17T06:44:18.907Z,6.8
2018-10-17T06:46:19.020Z,8.5
2018-10-17T06:48:18.792Z,7.2
2018-10-17T06:50:18.594Z,7.4
2018-10-17T06:52:19.190Z,8.1
2018-10-17T06:54:18.997Z,8.5
2018-10-17T06:56:19.496Z,7.1
2018-10-17T06:58:19.310Z,8.1
2018-10-17T07:00:19.076Z,8
2018-10-17T07:02:18.906Z,8.4
2018-10-17T07:04:18.810Z,9.4
2018-10-17T07:06:18.570Z,7.6
2018-10-17T07:08:19.406Z,7.9
2018-10-17T07:10:18.711Z,9.1
2018-10-17T07:12:19.462Z,8.6
2018-10-17T07:14:19.284Z,9.1
2018-10-17T07:16:18.523Z,9
2018-10-17T07:18:19.362Z,7.9
2018-10-17T07:20:19.142Z,8.3
2018-10-17T07:22:19.205Z,8.5
2018-10-17T07:24:18.965Z,9.2
2018-10-17T07:26:18.864Z,8.4
2018-10-17T07:28:18.671Z,9.7
2018-10-17T07:30:19.480Z,10.2
2018-10-17T07:32:19.267Z,10
2018-10-17T07:34:19.031Z,8.5
2018-10-17T07:36:19.101Z,10
2018-10-17T07:38:19.156Z,10.2
2018-10-17T07:40:19.425Z,10
2018-10-17T07:42:19.299Z,10.5
2018-10-17T07:44:19.291Z,10.7
2018-10-17T07:46:19.415Z,10.2
2018-10-17T07:48:19.189Z,11.8
2018-10-17T07:50:18.969Z,11.2
2018-10-17T07:52:19.385Z,11.6
2018-10-17T07:54:19.186Z,10.8
2018-10-17T07:56:19.054Z,11.2
2018-10-17T07:58:18.816Z,10.3
2018-10-17T08:00:18.649Z,11.3
2018-10-17T08:02:18.704Z,12.1
2018-10-17T08:04:19.482Z,10.6
2018-10-17T08:06:19.176Z,13.6
2018-10-17T08:08:19.143Z,12.2
2018-10-17T08:10:19.407Z,11.4
2018-10-17T08:12:19.247Z,12.9
2018-10-17T08:14:19.406Z,12.7
2018-10-17T08:16:18.668Z,13.6
2018-10-17T08:18:19.624Z,13.1
2018-10-17T08:20:19.483Z,13.4
2018-10-17T08:22:19.261Z,13.4
2018-10-17T08:24:19.022Z,13.9
2018-10-17T08:26:19.130Z,13.1
2018-10-17T08:28:18.941Z,15.6
2018-10-17T08:30:18.795Z,14.7
2018-10-17T08:32:18.908Z,12.3
2018-10-17T08:34:18.707Z,14.5
2018-10-17T08:36:18.765Z,14.6
2018-10-17T08:38:18.988Z,14.2
2018-10-17T08:40:19.440Z,15.4
2018-10-17T08:42:19.229Z,14.9
2018-10-17T08:44:19.122Z,15.2
2018-10-17T08:46:18.707Z,13.6
2018-10-17T08:48:19.470Z,16.3
2018-10-17T08:50:19.290Z,17
2018-10-17T08:52:19.188Z,17.1
2018-10-17T08:54:19.002Z,17.3
2018-10-17T08:56:19.132Z,15.2
2018-10-17T08:58:18.933Z,16.4
2018-10-17T09:00:18.777Z,18
2018-10-17T09:02:18.638Z,14.4
2018-10-17T09:04:19.444Z,16
2018-10-17T09:06:19.146Z,16.1
2018-10-17T09:08:19.362Z,18.1
2018-10-17T09:10:18.820Z,17.6
2018-10-17T09:12:18.747Z,16.7
2018-10-17T09:14:18.863Z,18.1
2018-10-17T09:16:19.182Z,17.8
2018-10-17T09:18:19.512Z,15.6
2018-10-17T09:20:18.893Z,16.9
2018-10-17T09:22:19.076Z,16.5
2018-10-17T09:24:18.788Z,17.5
2018-10-17T09:26:19.070Z,16.3
2018-10-17T09:28:19.060Z,17.8
2018-10-17T09:30:19.106Z,17.6
2018-10-17T09:32:19.277Z,17.9
2018-10-17T09:34:19.215Z,18.2
2018-10-17T09:36:17.961Z,17.1
2018-10-17T09:38:18.123Z,18.1
2018-10-17T09:40:19.467Z,18
2018-10-17T09:42:19.605Z,17.4
2018-10-17T09:44:18.601Z,17.5
2018-10-17T09:46:19.237Z,17.3
2018-10-17T09:48:19.086Z,18.5
2018-10-17T09:50:19.146Z,19.3
2018-10-17T09:52:18.811Z,18.8
2018-10-17T09:54:17.774Z,17.6
2018-10-17T09:56:19.438Z,18.3
2018-10-17T09:58:19.329Z,17.2
2018-10-17T10:00:19.290Z,16.1
2018-10-17T10:02:19.346Z,18.5
2018-10-17T10:04:19.494Z,15.9
2018-10-17T10:06:19.365Z,16.6
2018-10-17T10:08:19.378Z,17
2018-10-17T10:10:18.796Z,17.4
2018-10-17T10:12:18.959Z,16.2
2018-10-17T10:14:19.036Z,18
2018-10-17T10:16:18.797Z,18.5
2018-10-17T10:18:18.759Z,19.2
2018-10-17T10:20:17.605Z,18.4
2018-10-17T10:22:19.412Z,16.4
2018-10-17T10:24:18.286Z,16.2
2018-10-17T10:26:18.022Z,17.3
2018-10-17T10:28:19.046Z,15.6
2018-10-17T10:30:19.223Z,16.6
2018-10-17T10:32:19.215Z,14.7
2018-10-17T10:34:19.152Z,17.1
2018-10-17T10:36:18.118Z,16.2
2018-10-17T10:38:18.236Z,14.7
2018-10-17T10:40:18.516Z,16.1
2018-10-17T10:42:18.323Z,15.7
2018-10-17T10:44:18.155Z,14.2
2018-10-17T10:46:18.389Z,14.5
2018-10-17T10:48:18.288Z,15.9
2018-10-17T10:50:18.414Z,15.9
2018-10-17T10:52:18.450Z,15.2
2018-10-17T10:54:19.375Z,15.9
2018-10-17T10:56:18.791Z,15.9
2018-10-17T10:58:19.046Z,15.7
2018-10-17T11:00:18.351Z,14.9
2018-10-17T11:02:18.438Z,15
2018-10-17T11:04:18.242Z,16.4
2018-10-17T11:06:18.478Z,15.7
2018-10-17T11:08:18.344Z,18.3
2018-10-17T11:10:17.846Z,15.4
2018-10-17T11:12:17.629Z,15.5
2018-10-17T11:14:18.641Z,16.2
2018-10-17T11:16:19.449Z,16.5
2018-10-17T11:18:18.324Z,15.2
2018-10-17T11:20:18.121Z,15.7
2018-10-17T11:22:17.855Z,15.7
2018-10-17T11:24:17.653Z,14.3
2018-10-17T11:26:18.207Z,14.3
2018-10-17T11:28:18.000Z,13.6
2018-10-17T11:30:17.804Z,16.4
2018-10-17T11:32:17.586Z,14.5
2018-10-17T11:34:18.393Z,14.5
2018-10-17T11:36:17.818Z,15.5
2018-10-17T11:38:17.642Z,13.6
2018-10-17T11:40:17.960Z,12.7
2018-10-17T11:42:17.757Z,13.1
2018-10-17T11:44:17.565Z,14.3
2018-10-17T11:46:18.273Z,11.9
2018-10-17T11:48:18.068Z,12.3
2018-10-17T11:50:18.018Z,13.6
2018-10-17T11:52:17.804Z,13.3
2018-10-17T11:54:17.597Z,13.2
2018-10-17T11:56:17.826Z,12.5
2018-10-17T11:58:17.635Z,11.8
2018-10-17T12:00:18.424Z,12.4
2018-10-17T12:02:18.208Z,10.2
2018-10-17T12:04:18.423Z,11.1
2018-10-17T12:06:17.850Z,9.3
2018-10-17T12:08:17.995Z,9
2018-10-17T12:10:18.326Z,9.9
2018-10-17T12:12:18.166Z,9.3
2018-10-17T12:14:18.142Z,10.9
2018-10-17T12:16:17.993Z,9.2
2018-10-17T12:18:18.058Z,10.4
2018-10-17T12:20:17.991Z,10.7
2018-10-17T12:22:18.447Z,9.8
2018-10-17T12:24:18.313Z,10
2018-10-17T12:26:17.763Z,9.2
2018-10-17T12:28:17.767Z,8.4
2018-10-17T12:30:18.004Z,8.8
2018-10-17T12:32:18.027Z,9.5
2018-10-17T12:34:17.826Z,9.2
2018-10-17T12:36:18.250Z,9.4
2018-10-17T12:38:18.048Z,9.7
2018-10-17T12:40:18.562Z,9.7
2018-10-17T12:42:17.572Z,8.9
2018-10-17T12:44:18.459Z,9.5
2018-10-17T12:46:18.359Z,8.8
2018-10-17T12:48:18.173Z,10
2018-10-17T12:50:18.093Z,11.3
2018-10-17T12:52:18.297Z,9
2018-10-17T12:54:18.159Z,8.5
2018-10-17T12:56:18.082Z,9.3
2018-10-17T12:58:18.158Z,8.7
2018-10-17T13:00:17.972Z,8.5
2018-10-17T13:02:17.779Z,8.7
2018-10-17T13:04:17.595Z,7.9
2018-10-17T13:06:17.900Z,7.9
2018-10-17T13:08:17.723Z,8.1
2018-10-17T13:10:18.114Z,7.5
2018-10-17T13:12:18.035Z,8
2018-10-17T13:14:17.851Z,8
2018-10-17T13:16:17.692Z,8.4
2018-10-17T13:18:17.609Z,7.8
2018-10-17T13:20:18.501Z,8.8
2018-10-17T13:22:18.340Z,7.6
2018-10-17T13:24:18.205Z,8.6
2018-10-17T13:26:18.492Z,8.4
2018-10-17T13:28:18.294Z,8.3
2018-10-17T13:30:18.128Z,8.7
2018-10-17T13:32:17.955Z,8.7
2018-10-17T13:34:17.810Z,9.7
2018-10-17T13:36:18.353Z,7.2
2018-10-17T13:38:18.161Z,7.3
2018-10-17T13:40:18.505Z,8.2
2018-10-17T13:42:18.395Z,8.6
2018-10-17T13:44:18.477Z,8.6
2018-10-17T13:46:18.199Z,8.8
2018-10-17T13:48:18.017Z,9.6
2018-10-17T13:50:17.847Z,8.5
2018-10-17T13:52:17.675Z,8.7
2018-10-17T13:54:18.506Z,8.9
2018-10-17T13:56:18.251Z,8.9
2018-10-17T13:58:18.181Z,8.9
2018-10-17T14:00:18.218Z,8.7
2018-10-17T14:02:18.070Z,9.3
2018-10-17T14:04:17.941Z,8.2
2018-10-17T14:06:18.205Z,9.2
2018-10-17T14:08:18.246Z,9.6
2018-10-17T14:10:18.596Z,9.7
2018-10-17T14:12:18.575Z,8.9
2018-10-17T14:14:17.665Z,9
2018-10-17T14:16:17.769Z,8.9
2018-10-17T14:18:17.683Z,8.8
2018-10-17T14:20:18.528Z,9.3
2018-10-17T14:22:18.363Z,9.6
2018-10-17T14:24:18.337Z,9.3
2018-10-17T14:26:18.305Z,8.9
2018-10-17T14:28:18.133Z,10.6
2018-10-17T14:30:18.053Z,10.3
2018-10-17T14:32:18.171Z,9.8
2018-10-17T14:34:17.994Z,10.4
2018-10-17T14:36:18.254Z,9.8
2018-10-17T14:38:18.382Z,9.9
2018-10-17T14:40:17.745Z,10
2018-10-17T14:42:18.693Z,10.5
2018-10-17T14:44:17.621Z,8.7
2018-10-17T14:46:18.006Z,9.8
2018-10-17T14:48:17.957Z,12
2018-10-17T14:50:18.101Z,11.1
2018-10-17T14:52:17.943Z,10.6
2018-10-17T14:54:17.758Z,11.4
2018-10-17T14:56:18.567Z,10.2
2018-10-17T14:58:17.773Z,11.6
2018-10-17T15:00:17.574Z,10.2
2018-10-17T15:02:18.404Z,10.8
2018-10-17T15:04:18.228Z,11.1
2018-10-17T15:06:17.892Z,9.4
2018-10-17T15:08:17.712Z,10.3
2018-10-17T15:10:18.107Z,9.1
2018-10-17T15:12:18.040Z,11.9
2018-10-17T15:14:17.855Z,10.6
2018-10-17T15:16:17.590Z,12.1
2018-10-17T15:18:18.495Z,12.1
2018-10-17T15:20:18.336Z,12.3
2018-10-17T15:22:18.183Z,9.7
2018-10-17T15:24:18.082Z,11.4
2018-10-17T15:26:18.535Z,11.1
2018-10-17T15:28:18.371Z,10.6
2018-10-17T15:30:18.356Z,12.4
2018-10-17T15:32:18.513Z,10
2018-10-17T15:34:18.305Z,13.2
2018-10-17T15:36:18.181Z,9.6
2018-10-17T15:38:18.204Z,11.8
2018-10-17T15:40:18.566Z,11.8
2018-10-17T15:42:18.162Z,10.7
2018-10-17T15:44:18.159Z,10.6
2018-10-17T15:46:18.557Z,10.6
2018-10-17T15:48:18.380Z,11.2
2018-10-17T15:50:18.230Z,10.9
2018-10-17T15:52:18.050Z,12
2018-10-17T15:54:17.989Z,10.6
2018-10-17T15:56:17.549Z,9.6
2018-10-17T15:58:18.342Z,10.3
2018-10-17T16:00:18.235Z,9.5
2018-10-17T16:02:18.499Z,9.3
2018-10-17T16:04:18.441Z,10.3
2018-10-17T16:06:17.694Z,11.3
2018-10-17T16:08:17.879Z,10.8
2018-10-17T16:10:18.543Z,10.3
2018-10-17T16:12:18.179Z,10.7
2018-10-17T16:14:18.337Z,11.1
2018-10-17T16:16:17.597Z,12.3
2018-10-17T16:18:18.633Z,11.3
2018-10-17T16:20:18.601Z,11.7
2018-10-17T16:22:17.562Z,11.9
2018-10-17T16:24:18.455Z,12.5
2018-10-17T16:26:18.434Z,10.9
2018-10-17T16:28:18.514Z,11.8
2018-10-17T16:30:18.354Z,11.8
2018-10-17T16:32:18.382Z,12.4
2018-10-17T16:34:18.177Z,11.6
2018-10-17T16:36:18.225Z,11.8
2018-10-17T16:38:18.292Z,13
2018-10-17T16:40:17.843Z,12.5
2018-10-17T16:42:17.753Z,12.5
2018-10-17T16:44:18.008Z,11.4
2018-10-17T16:46:17.741Z,12.4
2018-10-17T16:48:18.592Z,14.2
2018-10-17T16:50:17.936Z,12.4
2018-10-17T16:52:17.951Z,12.8
2018-10-17T16:54:17.943Z,14.3
2018-10-17T16:56:17.732Z,12.5
2018-10-17T16:58:18.652Z,15.5
2018-10-17T17:00:17.923Z,13.4
2018-10-17T17:02:17.927Z,13.2
2018-10-17T17:04:17.751Z,14
2018-10-17T17:06:18.448Z,14.4
2018-10-17T17:08:17.569Z,15.1
2018-10-17T17:10:17.894Z,13.9
2018-10-17T17:12:17.806Z,12.7
2018-10-17T17:14:17.920Z,14.3
2018-10-17T17:16:18.416Z,14.2
2018-10-17T17:18:18.565Z,13.9
2018-10-17T17:20:17.631Z,13.7
2018-10-17T17:22:17.674Z,13.9
2018-10-17T17:24:18.453Z,12.7
2018-10-17T17:26:18.250Z,13.4
2018-10-17T17:28:19.050Z,14.6
2018-10-17T17:30:17.978Z,12.7
2018-10-17T17:32:18.058Z,12.2
2018-10-17T17:34:17.857Z,14.4
2018-10-17T17:36:18.366Z,13.6
2018-10-17T17:38:18.236Z,12.8
2018-10-17T17:40:17.592Z,12.2
2018-10-17T17:42:19.423Z,11.9
2018-10-17T17:44:18.235Z,13
2018-10-17T17:46:18.162Z,12.9
2018-10-17T17:48:18.945Z,14.6
2018-10-17T17:50:17.770Z,13.1
2018-10-17T17:52:18.631Z,12.9
2018-10-17T17:54:18.515Z,13.2
2018-10-17T17:56:19.285Z,13
2018-10-17T17:58:19.176Z,13.5
2018-10-17T18:00:18.247Z,13.5
2018-10-17T18:02:18.057Z,13.8
2018-10-17T18:04:17.928Z,13
2018-10-17T18:06:18.355Z,12.5
2018-10-17T18:08:18.229Z,13.6
2018-10-17T18:10:19.481Z,13.3
2018-10-17T18:12:18.062Z,12.9
2018-10-17T18:14:17.881Z,13.2
2018-10-17T18:16:18.389Z,12.9
2018-10-17T18:18:18.293Z,12.8
2018-10-17T18:20:19.146Z,13.8
2018-10-17T18:22:19.268Z,13.5
2018-10-17T18:24:18.137Z,13
2018-10-17T18:26:18.745Z,14
2018-10-17T18:28:18.657Z,14.3
2018-10-17T18:30:18.796Z,16.5
2018-10-17T18:32:17.596Z,16.2
2018-10-17T18:34:18.415Z,16
2018-10-17T18:36:19.035Z,14.6
2018-10-17T18:38:18.851Z,13.8
2018-10-17T18:40:19.237Z,15.1
2018-10-17T18:42:19.265Z,14.8
2018-10-17T18:44:18.067Z,14.7
2018-10-17T18:46:19.407Z,14.1
2018-10-17T18:48:19.184Z,16.4
2018-10-17T18:50:18.988Z,14
2018-10-17T18:52:18.786Z,14.4
2018-10-17T18:54:18.574Z,15
2018-10-17T18:56:18.256Z,14.2
2018-10-17T18:58:19.244Z,14.4
2018-10-17T19:00:18.029Z,13.8
2018-10-17T19:02:18.808Z,13.4
2018-10-17T19:04:17.627Z,14.3
2018-10-17T19:06:19.053Z,16.5
2018-10-17T19:08:18.927Z,14.3
2018-10-17T19:10:18.510Z,15
2018-10-17T19:12:19.305Z,14.2
2018-10-17T19:14:19.072Z,14
2018-10-17T19:16:18.675Z,13.5
2018-10-17T19:18:18.716Z,14.1
2018-10-17T19:20:18.509Z,15.5
2018-10-17T19:22:19.292Z,14.2
2018-10-17T19:24:19.076Z,14.3
2018-10-17T19:26:19.290Z,13.5
2018-10-17T19:28:19.076Z,13.8
2018-10-17T19:30:18.952Z,14
2018-10-17T19:32:18.969Z,15.2
2018-10-17T19:34:18.753Z,13.7
2018-10-17T19:36:19.204Z,15.1
2018-10-17T19:38:18.984Z,15.9
2018-10-17T19:40:19.264Z,15.2
2018-10-17T19:42:19.071Z,16
2018-10-17T19:44:18.864Z,15.7
2018-10-17T19:46:18.786Z,14.3
2018-10-17T19:48:18.591Z,14
2018-10-17T19:50:19.397Z,15.9
2018-10-17T19:52:19.213Z,16.1
2018-10-17T19:54:19.000Z,14.3
2018-10-17T19:56:18.601Z,16.1
2018-10-17T19:58:19.363Z,14.3
2018-10-17T20:00:19.170Z,13.2
2018-10-17T20:02:19.077Z,13.7
2018-10-17T20:04:19.141Z,15.1
2018-10-17T20:06:18.858Z,15.2
2018-10-17T20:08:18.632Z,14.7
2018-10-17T20:10:18.908Z,14.5
2018-10-17T20:12:18.721Z,14
2018-10-17T20:14:19.638Z,15.6
2018-10-17T20:16:18.879Z,16.5
2018-10-17T20:18:18.760Z,15
2018-10-17T20:20:18.540Z,15.3
2018-10-17T20:22:19.339Z,13.5
2018-10-17T20:24:19.117Z,15.3
2018-10-17T20:26:18.921Z,15.3
2018-10-17T20:28:18.710Z,15.5
2018-10-17T20:30:19.706Z,15.4
2018-10-17T20:32:19.516Z,15
2018-10-17T20:34:19.304Z,15.5
2018-10-17T20:36:18.616Z,14.9
2018-10-17T20:38:19.387Z,16.2
2018-10-17T20:40:18.672Z,17.7
2018-10-17T20:42:19.605Z,14.6
2018-10-17T20:44:18.536Z,15.6
2018-10-17T20:46:19.184Z,16.6
2018-10-17T20:48:18.972Z,15.1
2018-10-17T20:50:18.909Z,13.5
2018-10-17T20:52:19.042Z,14.6
2018-10-17T20:54:18.975Z,16.4
2018-10-17T20:56:19.366Z,15.7
2018-10-17T20:58:19.572Z,15
2018-10-17T21:00:18.698Z,16.8
2018-10-17T21:02:19.508Z,16.5
2018-10-17T21:04:19.426Z,15.2
2018-10-17T21:06:19.180Z,16.6
2018-10-17T21:08:19.082Z,15.8
2018-10-17T21:10:18.569Z,14.4
2018-10-17T21:12:18.594Z,14.9
2018-10-17T21:14:19.383Z,16.2
2018-10-17T21:16:19.455Z,16.3
2018-10-17T21:18:19.332Z,16.2
2018-10-17T21:20:19.442Z,16.7
2018-10-17T21:22:18.999Z,15.7
2018-10-17T21:24:18.819Z,16.9
2018-10-17T21:26:19.012Z,16.1
2018-10-17T21:28:18.809Z,15.8
2018-10-17T21:30:18.617Z,16.6
2018-10-17T21:32:19.415Z,15.5
2018-10-17T21:34:19.202Z,16.4
2018-10-17T21:36:19.316Z,16.6
2018-10-17T21:38:19.250Z,16.3
2018-10-17T21:40:18.647Z,16.2
2018-10-17T21:42:19.427Z,17.6
2018-10-17T21:44:19.178Z,18
2018-10-17T21:46:18.584Z,15.3
2018-10-17T21:48:19.374Z,16.2
2018-10-17T21:50:19.175Z,16.7
2018-10-17T21:52:19.048Z,15.8
2018-10-17T21:54:18.812Z,15.6
2018-10-17T21:56:19.429Z,14.6
2018-10-17T21:58:19.202Z,13.5
2018-10-17T22:00:19.124Z,15
2018-10-17T22:02:18.667Z,15
2018-10-17T22:04:19.462Z,14.7
2018-10-17T22:06:19.115Z,15.1
2018-10-17T22:08:18.890Z,14.2
2018-10-17T22:10:19.232Z,14.2
2018-10-17T22:12:19.027Z,15.5
2018-10-17T22:14:18.800Z,15.3
2018-10-17T22:16:19.423Z,14.8
2018-10-17T22:18:19.300Z,15.2
2018-10-17T22:20:19.206Z,14.5
2018-10-17T22:22:19.183Z,16
2018-10-17T22:24:18.952Z,14.4
2018-10-17T22:26:18.669Z,15.1
2018-10-17T22:28:18.628Z,13.8
2018-10-17T22:30:19.422Z,14.5
2018-10-17T22:32:19.224Z,14.6
2018-10-17T22:34:19.020Z,14.5
2018-10-17T22:36:18.579Z,15.3
2018-10-17T22:38:19.369Z,14.6
2018-10-17T22:40:18.675Z,14.8
2018-10-17T22:42:19.477Z,15.1
2018-10-17T22:44:19.232Z,14.2
2018-10-17T22:46:18.694Z,15.3
2018-10-17T22:48:19.464Z,15.1
2018-10-17T22:50:19.245Z,13.7
2018-10-17T22:52:19.009Z,15.4
2018-10-17T22:54:18.801Z,15.7
2018-10-17T22:56:18.705Z,15.2
2018-10-17T22:58:18.717Z,16.3
2018-10-17T23:00:19.521Z,15.4
2018-10-17T23:02:19.301Z,15.5
2018-10-17T23:04:19.083Z,14.4
2018-10-17T23:06:19.247Z,14.8
2018-10-17T23:08:19.037Z,14.8
2018-10-17T23:10:19.303Z,14.9
2018-10-17T23:12:19.423Z,15.3
2018-10-17T23:14:19.216Z,14.7
2018-10-17T23:16:18.733Z,14.7
2018-10-17T23:18:18.584Z,14
2018-10-17T23:20:19.366Z,16
2018-10-17T23:22:19.129Z,15.6
2018-10-17T23:24:18.906Z,14.9
2018-10-17T23:26:19.002Z,15.4
2018-10-17T23:28:18.796Z,16.3
2018-10-17T23:30:18.569Z,15.4
2018-10-17T23:32:19.379Z,15
2018-10-17T23:34:19.154Z,14.2
2018-10-17T23:36:18.937Z,14.4
2018-10-17T23:38:18.717Z,14.9
2018-10-17T23:40:18.961Z,15.2
2018-10-17T23:42:18.720Z,15.4
2018-10-17T23:44:18.591Z,15.7
2018-10-17T23:46:19.473Z,15.8
2018-10-17T23:48:19.231Z,13.6
2018-10-17T23:50:19.108Z,15.6
2018-10-17T23:52:18.652Z,14.9
2018-10-17T23:54:19.445Z,15.1
2018-10-17T23:56:18.627Z,15
2018-10-17T23:58:18.581Z,15.2
